createdAt,value
2022-08-08T00:00:54.306Z,5.80
2022-08-08T00:03:32.216Z,5.32
2022-08-08T00:06:47.804Z,5.27
2022-08-08T00:10:05.160Z,4.97
2022-08-08T00:13:20.621Z,4.93
2022-08-08T00:16:28.951Z,4.83
2022-08-08T00:19:46.702Z,5.27
2022-08-08T00:23:00.584Z,4.97
2022-08-08T00:26:08.695Z,4.93
2022-08-08T00:29:45.837Z,5.17
2022-08-08T00:32:49.485Z,6.30
2022-08-08T00:36:02.414Z,5.13
2022-08-08T00:41:06.310Z,5.53
2022-08-08T00:43:23.663Z,6.23
2022-08-08T00:46:57.015Z,5.30
2022-08-08T00:50:26.792Z,7.10
2022-08-08T00:54:15.290Z,6.30
2022-08-08T00:58:14.724Z,7.20
2022-08-08T01:01:29.303Z,4.80
2022-08-08T01:05:59.794Z,6.10
2022-08-08T01:09:50.662Z,5.37
2022-08-08T01:13:43.934Z,7.93
2022-08-08T01:17:35.097Z,9.70
2022-08-08T01:21:36.943Z,5.97
2022-08-08T01:25:40.731Z,6.20
2022-08-08T01:29:35.559Z,7.03
2022-08-08T01:34:00.091Z,5.70
2022-08-08T01:38:05.799Z,5.13
2022-08-08T01:41:34.415Z,5.23
2022-08-08T01:44:58.896Z,5.40
2022-08-08T01:48:16.206Z,5.40
2022-08-08T01:52:28.086Z,5.20
2022-08-08T01:56:29.739Z,5.00
2022-08-08T01:59:14.833Z,5.57
2022-08-08T02:02:39.998Z,5.37
2022-08-08T02:05:59.612Z,6.30
2022-08-08T02:10:01.892Z,8.20
2022-08-08T02:12:54.994Z,7.30
2022-08-08T02:16:20.545Z,7.10
2022-08-08T02:19:57.978Z,5.97
2022-08-08T02:23:07.670Z,5.30
2022-08-08T02:26:17.498Z,4.90
2022-08-08T02:29:54.789Z,5.63
2022-08-08T02:33:15.419Z,5.73
2022-08-08T02:36:40.732Z,5.20
2022-08-08T02:40:10.296Z,6.10
2022-08-08T02:44:42.553Z,6.03
2022-08-08T02:48:26.268Z,6.00
2022-08-08T02:52:03.150Z,6.07
2022-08-08T02:56:08.549Z,6.37
2022-08-08T03:00:27.073Z,6.23
2022-08-08T03:05:05.091Z,6.77
2022-08-08T03:08:33.540Z,6.03
2022-08-08T03:12:36.763Z,5.57
2022-08-08T03:16:34.622Z,5.60
2022-08-08T03:20:05.650Z,6.27
2022-08-08T03:23:17.554Z,6.10
2022-08-08T03:26:31.120Z,5.83
2022-08-08T03:29:55.348Z,6.30
2022-08-08T03:33:55.284Z,5.83
2022-08-08T03:36:45.029Z,6.10
2022-08-08T03:40:00.641Z,5.97
2022-08-08T03:43:18.074Z,6.37
2022-08-08T03:46:25.915Z,6.30
2022-08-08T03:49:57.220Z,6.23
2022-08-08T03:53:04.394Z,5.80
2022-08-08T03:56:09.516Z,6.07
2022-08-08T03:59:22.527Z,5.40
2022-08-08T04:02:36.553Z,5.70
2022-08-08T04:05:51.427Z,5.97
2022-08-08T04:09:06.814Z,6.50
2022-08-08T04:12:16.760Z,6.60
2022-08-08T04:15:24.431Z,6.03
2022-08-08T04:18:44.626Z,5.53
2022-08-08T04:21:48.093Z,5.77
2022-08-08T04:24:54.409Z,5.97
2022-08-08T04:28:37.018Z,6.00
2022-08-08T04:31:30.719Z,5.67
2022-08-08T04:34:55.841Z,5.83
2022-08-08T04:38:06.275Z,5.67
2022-08-08T04:41:18.036Z,5.27
2022-08-08T04:44:26.924Z,6.17
2022-08-08T04:47:30.834Z,5.70
2022-08-08T04:50:38.172Z,5.80
2022-08-08T04:54:27.173Z,6.23
2022-08-08T04:57:07.451Z,6.60
2022-08-08T05:00:19.674Z,6.07
2022-08-08T05:04:09.957Z,5.37
2022-08-08T05:06:52.176Z,5.53
2022-08-08T05:09:57.361Z,5.63
2022-08-08T05:13:02.612Z,5.23
2022-08-08T05:16:51.673Z,5.33
2022-08-08T05:20:12.537Z,5.23
2022-08-08T05:23:11.075Z,5.90
2022-08-08T05:26:14.458Z,5.57
2022-08-08T05:29:17.641Z,5.70
2022-08-08T05:32:24.610Z,5.67
2022-08-08T05:35:34.119Z,5.53
2022-08-08T05:38:48.704Z,5.77
2022-08-08T05:41:57.383Z,6.43
2022-08-08T05:45:10.335Z,6.37
2022-08-08T05:48:31.342Z,7.00
2022-08-08T05:51:48.457Z,7.63
2022-08-08T05:55:00.349Z,5.32
2022-08-08T05:58:17.876Z,6.90
2022-08-08T06:01:55.424Z,5.60
2022-08-08T06:04:56.299Z,6.65
2022-08-08T06:08:09.957Z,6.32
2022-08-08T06:11:32.801Z,5.55
2022-08-08T06:14:48.818Z,5.18
2022-08-08T06:18:20.249Z,4.75
2022-08-08T06:21:32.574Z,5.10
2022-08-08T06:24:47.377Z,4.90
2022-08-08T06:27:56.987Z,5.00
2022-08-08T06:31:04.218Z,5.30
2022-08-08T06:34:26.191Z,5.63
2022-08-08T06:37:37.351Z,5.43
2022-08-08T06:40:53.863Z,5.10
2022-08-08T06:44:03.332Z,5.50
2022-08-08T06:47:11.665Z,5.68
2022-08-08T06:50:17.614Z,4.82
2022-08-08T06:53:39.163Z,5.07
2022-08-08T06:56:47.103Z,5.15
2022-08-08T07:00:12.644Z,6.45
2022-08-08T07:04:36.995Z,5.95
2022-08-08T07:06:58.239Z,5.50
2022-08-08T07:10:08.876Z,6.07
2022-08-08T07:13:25.128Z,5.20
2022-08-08T07:16:50.815Z,5.38
2022-08-08T07:20:05.169Z,4.57
2022-08-08T07:23:22.464Z,4.63
2022-08-08T07:26:35.697Z,4.95
2022-08-08T07:29:59.934Z,4.70
2022-08-08T07:33:05.982Z,5.00
2022-08-08T07:36:15.211Z,4.57
2022-08-08T07:39:29.461Z,4.43
2022-08-08T07:42:38.382Z,4.75
2022-08-08T07:46:05.442Z,4.93
2022-08-08T07:49:13.419Z,4.90
2022-08-08T07:52:23.040Z,4.50
2022-08-08T07:55:36.444Z,4.53
2022-08-08T07:58:45.174Z,4.10
2022-08-08T08:02:35.728Z,4.05
2022-08-08T08:05:33.138Z,4.82
2022-08-08T08:08:41.855Z,4.25
2022-08-08T08:11:55.300Z,4.22
2022-08-08T08:15:08.513Z,4.05
2022-08-08T08:18:18.095Z,3.72
2022-08-08T08:21:52.668Z,4.45
2022-08-08T08:25:10.238Z,4.35
2022-08-08T08:28:21.264Z,3.38
2022-08-08T08:31:29.811Z,3.97
2022-08-08T08:34:49.296Z,3.75
2022-08-08T08:38:15.792Z,3.47
2022-08-08T08:41:20.192Z,4.45
2022-08-08T08:44:29.011Z,3.85
2022-08-08T08:47:44.879Z,2.97
2022-08-08T08:50:52.350Z,3.20
2022-08-08T08:53:59.764Z,2.97
2022-08-08T08:57:15.731Z,3.03
2022-08-08T09:00:22.645Z,2.88
2022-08-08T09:03:46.504Z,2.53
2022-08-08T09:06:53.941Z,2.80
2022-08-08T09:10:01.011Z,2.92
2022-08-08T09:13:18.621Z,2.90
2022-08-08T09:16:33.207Z,2.75
2022-08-08T09:21:57.187Z,2.53
2022-08-08T09:23:03.699Z,2.50
2022-08-08T09:26:16.061Z,2.83
2022-08-08T09:29:24.624Z,3.80
2022-08-08T09:32:50.267Z,3.63
2022-08-08T09:36:07.021Z,3.47
2022-08-08T09:39:19.144Z,2.55
2022-08-08T09:42:31.818Z,3.55
2022-08-08T09:46:01.151Z,3.53
2022-08-08T09:49:41.565Z,3.00
2022-08-08T09:52:56.595Z,2.70
2022-08-08T09:56:05.936Z,2.75
2022-08-08T09:59:42.825Z,3.30
2022-08-08T10:02:40.409Z,2.83
2022-08-08T10:05:46.844Z,2.83
2022-08-08T10:08:53.428Z,2.78
2022-08-08T10:12:27.035Z,2.45
2022-08-08T10:15:20.741Z,2.42
2022-08-08T10:18:28.243Z,2.08
2022-08-08T10:21:42.340Z,2.85
2022-08-08T10:25:01.374Z,2.47
2022-08-08T10:28:08.168Z,2.95
2022-08-08T10:31:46.897Z,2.47
2022-08-08T10:34:58.576Z,2.25
2022-08-08T10:38:08.530Z,2.58
2022-08-08T10:41:20.034Z,2.35
2022-08-08T10:44:33.701Z,2.58
2022-08-08T10:47:43.337Z,2.60
2022-08-08T10:50:47.373Z,2.30
2022-08-08T10:53:58.202Z,2.50
2022-08-08T10:57:05.707Z,2.30
2022-08-08T11:00:15.239Z,2.47
2022-08-08T11:03:18.915Z,2.83
2022-08-08T11:06:41.697Z,2.38
2022-08-08T11:09:50.255Z,2.35
2022-08-08T11:13:18.640Z,2.70
2022-08-08T11:16:33.020Z,2.47
2022-08-08T11:19:37.904Z,2.65
2022-08-08T11:22:42.203Z,2.40
2022-08-08T11:25:52.531Z,2.70
2022-08-08T11:29:02.872Z,2.75
2022-08-08T11:32:08.839Z,2.50
2022-08-08T11:35:27.827Z,2.67
2022-08-08T11:38:54.265Z,2.60
2022-08-08T11:41:58.842Z,2.88
2022-08-08T11:45:06.518Z,2.42
2022-08-08T11:48:12.281Z,2.33
2022-08-08T11:51:39.200Z,2.50
2022-08-08T11:54:46.625Z,2.97
2022-08-08T11:57:51.652Z,2.92
2022-08-08T12:00:58.321Z,2.58
2022-08-08T12:04:05.599Z,2.53
2022-08-08T12:07:17.233Z,2.13
2022-08-08T12:10:23.453Z,2.10
2022-08-08T12:13:37.694Z,2.40
2022-08-08T12:16:53.381Z,2.78
2022-08-08T12:19:57.860Z,2.67
2022-08-08T12:23:00.884Z,2.70
2022-08-08T12:26:10.489Z,2.28
2022-08-08T12:29:40.774Z,2.10
2022-08-08T12:32:49.279Z,2.30
2022-08-08T12:35:54.511Z,2.35
2022-08-08T12:38:57.763Z,2.40
2022-08-08T12:42:04.737Z,2.90
2022-08-08T12:45:53.825Z,2.80
2022-08-08T12:48:38.511Z,2.83
2022-08-08T12:51:50.216Z,2.35
2022-08-08T12:55:09.397Z,2.78
2022-08-08T12:58:19.662Z,2.90
2022-08-08T13:01:36.828Z,2.80
2022-08-08T13:04:51.104Z,3.40
2022-08-08T13:08:04.467Z,3.25
2022-08-08T13:11:23.747Z,3.38
2022-08-08T13:14:38.742Z,3.50
2022-08-08T13:18:10.986Z,2.97
2022-08-08T13:21:16.610Z,2.60
2022-08-08T13:24:40.535Z,2.45
2022-08-08T13:27:43.286Z,3.38
2022-08-08T13:30:46.279Z,3.15
2022-08-08T13:33:54.402Z,2.90
2022-08-08T13:36:58.976Z,2.80
2022-08-08T13:40:06.036Z,2.70
2022-08-08T13:43:10.858Z,2.10
2022-08-08T13:46:26.615Z,2.50
2022-08-08T13:50:36.755Z,2.25
2022-08-08T13:52:57.264Z,2.95
2022-08-08T13:56:02.045Z,2.47
2022-08-08T13:59:05.779Z,2.03
2022-08-08T14:02:20.811Z,2.55
2022-08-08T14:05:29.656Z,2.35
2022-08-08T14:08:46.132Z,2.50
2022-08-08T14:11:49.366Z,2.92
2022-08-08T14:14:52.685Z,2.40
2022-08-08T14:17:58.256Z,2.95
2022-08-08T14:21:04.483Z,2.42
2022-08-08T14:24:22.477Z,2.60
2022-08-08T14:27:29.462Z,2.20
2022-08-08T14:30:35.484Z,2.83
2022-08-08T14:33:39.146Z,2.67
2022-08-08T14:36:53.530Z,2.30
2022-08-08T14:40:06.466Z,3.10
2022-08-08T14:43:31.287Z,2.78
2022-08-08T14:46:34.131Z,3.08
2022-08-08T14:50:05.903Z,2.65
2022-08-08T14:53:05.094Z,2.85
2022-08-08T14:56:09.925Z,2.63
2022-08-08T14:59:31.659Z,2.70
2022-08-08T15:02:37.493Z,3.20
2022-08-08T15:06:00.252Z,2.83
2022-08-08T15:09:03.604Z,2.55
2022-08-08T15:12:09.505Z,3.50
2022-08-08T15:15:18.722Z,2.50
2022-08-08T15:18:38.238Z,2.60
2022-08-08T15:21:45.420Z,2.00
2022-08-08T15:24:50.048Z,2.35
2022-08-08T15:28:04.979Z,2.60
2022-08-08T15:31:55.684Z,2.30
2022-08-08T15:34:41.703Z,2.80
2022-08-08T15:37:45.184Z,2.90
2022-08-08T15:40:49.443Z,2.75
2022-08-08T15:44:00.508Z,3.03
2022-08-08T15:47:04.546Z,2.85
2022-08-08T15:50:19.783Z,2.42
2022-08-08T15:53:23.773Z,2.80
2022-08-08T15:56:29.235Z,2.60
2022-08-08T16:00:06.568Z,2.60
2022-08-08T16:02:59.356Z,2.47
2022-08-08T16:06:03.114Z,2.80
2022-08-08T16:13:04.329Z,2.45
2022-08-08T16:13:10.231Z,2.90
2022-08-08T16:15:59.018Z,2.45
2022-08-08T16:19:09.418Z,2.70
2022-08-08T16:22:41.369Z,2.58
2022-08-08T16:25:46.680Z,2.83
2022-08-08T16:28:57.744Z,2.53
2022-08-08T16:32:11.611Z,2.70
2022-08-08T16:35:23.607Z,2.65
2022-08-08T16:38:31.690Z,3.28
2022-08-08T16:41:34.960Z,2.60
2022-08-08T16:44:37.970Z,2.67
2022-08-08T16:47:42.810Z,2.90
2022-08-08T16:50:45.892Z,3.63
2022-08-08T16:55:18.255Z,3.15
2022-08-08T16:57:43.498Z,3.08
2022-08-08T17:00:36.964Z,3.03
2022-08-08T17:04:00.370Z,2.92
2022-08-08T17:07:05.529Z,2.92
2022-08-08T17:10:11.595Z,3.17
2022-08-08T17:13:14.784Z,2.72
2022-08-08T17:16:22.286Z,2.35
2022-08-08T17:19:30.084Z,2.92
2022-08-08T17:22:39.440Z,2.97
2022-08-08T17:25:52.470Z,4.45
2022-08-08T17:28:56.894Z,2.70
2022-08-08T17:32:01.929Z,3.30
2022-08-08T17:35:54.550Z,3.50
2022-08-08T17:38:31.351Z,3.67
2022-08-08T17:41:39.200Z,4.50
2022-08-08T17:44:46.749Z,4.25
2022-08-08T17:47:54.629Z,4.00
2022-08-08T17:51:00.985Z,3.88
2022-08-08T17:54:05.122Z,3.67
2022-08-08T17:57:11.904Z,4.30
2022-08-08T18:01:10.240Z,3.75
2022-08-08T18:04:49.359Z,3.60
2022-08-08T18:08:55.420Z,3.35
2022-08-08T18:12:22.654Z,3.55
2022-08-08T18:16:04.188Z,3.60
2022-08-08T18:20:42.860Z,3.63
2022-08-08T18:23:27.824Z,4.00
2022-08-08T18:26:31.969Z,3.38
2022-08-08T18:29:36.697Z,4.03
2022-08-08T18:32:41.939Z,4.20
2022-08-08T18:35:48.687Z,3.53
2022-08-08T18:38:53.533Z,3.33
2022-08-08T18:41:59.589Z,3.55
2022-08-08T18:45:09.294Z,4.50
2022-08-08T18:48:31.608Z,4.13
2022-08-08T18:51:54.250Z,4.10
2022-08-08T18:55:09.856Z,3.83
2022-08-08T18:58:14.541Z,3.88
2022-08-08T19:02:26.528Z,4.35
2022-08-08T19:04:42.388Z,3.78
2022-08-08T19:07:52.112Z,3.70
2022-08-08T19:10:59.518Z,3.88
2022-08-08T19:14:02.973Z,4.00
2022-08-08T19:17:07.513Z,3.65
2022-08-08T19:20:14.214Z,3.92
2022-08-08T19:23:17.674Z,4.90
2022-08-08T19:26:30.164Z,4.22
2022-08-08T19:29:40.559Z,4.60
2022-08-08T19:32:43.940Z,4.40
2022-08-08T19:36:07.941Z,5.60
2022-08-08T19:39:11.406Z,4.32
2022-08-08T19:42:16.099Z,4.85
2022-08-08T19:45:59.708Z,4.35
2022-08-08T19:48:42.547Z,5.03
2022-08-08T19:51:46.268Z,5.28
2022-08-08T19:54:56.191Z,4.55
2022-08-08T19:58:04.838Z,3.85
2022-08-08T20:01:18.346Z,4.38
2022-08-08T20:04:23.723Z,4.20
2022-08-08T20:08:28.825Z,5.43
2022-08-08T20:10:50.071Z,4.45
2022-08-08T20:14:33.054Z,4.47
2022-08-08T20:17:27.698Z,4.75
2022-08-08T20:20:31.213Z,4.45
2022-08-08T20:23:34.879Z,4.57
2022-08-08T20:26:38.422Z,4.97
2022-08-08T20:30:00.179Z,4.95
2022-08-08T20:33:18.413Z,4.75
2022-08-08T20:36:17.277Z,4.53
2022-08-08T20:39:33.714Z,5.05
2022-08-08T20:42:42.465Z,6.35
2022-08-08T20:45:54.665Z,4.95
2022-08-08T20:49:01.247Z,5.10
2022-08-08T20:52:05.910Z,5.22
2022-08-08T20:55:22.309Z,5.05
2022-08-08T20:58:28.589Z,4.95
2022-08-08T21:02:05.462Z,5.18
2022-08-08T21:05:01.056Z,5.22
2022-08-08T21:08:37.305Z,5.97
2022-08-08T21:11:51.554Z,5.10
2022-08-08T21:14:51.024Z,4.97
2022-08-08T21:17:57.765Z,5.18
2022-08-08T21:21:00.797Z,4.50
2022-08-08T21:24:19.481Z,4.85
2022-08-08T21:28:06.423Z,4.95
2022-08-08T21:30:53.263Z,4.60
2022-08-08T21:33:57.728Z,5.03
2022-08-08T21:37:11.447Z,4.75
2022-08-08T21:40:31.215Z,4.88
2022-08-08T21:43:34.887Z,4.18
2022-08-08T21:48:07.423Z,5.07
2022-08-08T21:50:02.801Z,5.40
2022-08-08T21:54:31.175Z,4.57
2022-08-08T21:56:38.155Z,4.80
2022-08-08T22:00:03.637Z,4.90
2022-08-08T22:03:17.961Z,5.63
2022-08-08T22:06:30.882Z,4.80
2022-08-08T22:09:40.683Z,4.50
2022-08-08T22:12:44.179Z,4.20
2022-08-08T22:15:59.520Z,3.97
2022-08-08T22:19:08.985Z,4.70
2022-08-08T22:22:20.120Z,4.18
2022-08-08T22:25:41.563Z,4.35
2022-08-08T22:29:13.702Z,5.03
2022-08-08T22:32:19.200Z,4.35
2022-08-08T22:35:23.837Z,4.88
2022-08-08T22:38:28.375Z,4.93
2022-08-08T22:41:31.392Z,4.40
2022-08-08T22:44:34.583Z,3.95
2022-08-08T22:47:41.452Z,4.45
2022-08-08T22:50:51.115Z,4.07
2022-08-08T22:54:34.103Z,5.00
2022-08-08T22:57:18.712Z,4.63
2022-08-08T23:00:22.237Z,4.43
2022-08-08T23:03:25.279Z,4.90
2022-08-08T23:06:37.441Z,6.40
2022-08-08T23:09:58.695Z,6.45
2022-08-08T23:13:02.618Z,5.43
2022-08-08T23:16:38.058Z,6.38
2022-08-08T23:19:32.616Z,7.55
2022-08-08T23:22:35.806Z,6.88
2022-08-08T23:25:48.255Z,6.50
2022-08-08T23:28:51.873Z,6.65
2022-08-08T23:31:55.352Z,6.57
2022-08-08T23:34:59.455Z,5.85
2022-08-08T23:38:03.871Z,6.22
2022-08-08T23:41:17.490Z,5.60
2022-08-08T23:44:29.102Z,7.63
2022-08-08T23:49:05.627Z,5.25
2022-08-08T23:50:57.754Z,5.38
2022-08-08T23:54:39.415Z,8.18
2022-08-08T23:57:38.797Z,6.10
